Glen Rose, Texas
Current Conditions -  °F | °C
As of 10:15 AM on Friday 24 Oct 2014 (Local Time) from KGDJ Reporting Station
Clear Clear  
Wind Chill: 72°   Ceiling: Unl
Heat Index: 72°   Visibility: 10mi
Dew Point: 59°   Wind: 6mph
Humidity: 63%   Direction: 150°SSE
Pressure: 30.18"   Gusts: NA
Location:  32.23°N, 97.76°W
Report Text: KGDJ 241515Z AUTO 15005KT 10SM CLR 22/15 A3018 RMK AO2 T02220148
Loading
Personal Weather Stations






























Interactive Weather Map New forecast layout! Learn more

10-Day Weather Forecast

Advertisements
Track Severe Weather on mobile